sensor_id;sensor_type;location;lat;lon;timestamp;P1;durP1;ratioP1;P2;durP2;ratioP2
8466;SDS011;4270;48.148;11.648;2022-11-20T00:02:08;2.67;;;2.23;;
8466;SDS011;4270;48.148;11.648;2022-11-20T00:04:34;4.23;;;2.53;;
8466;SDS011;4270;48.148;11.648;2022-11-20T00:06:59;2.50;;;2.30;;
8466;SDS011;4270;48.148;11.648;2022-11-20T00:09:24;3.77;;;2.57;;
8466;SDS011;4270;48.148;11.648;2022-11-20T00:11:49;3.77;;;2.67;;
8466;SDS011;4270;48.148;11.648;2022-11-20T00:14:14;3.60;;;2.43;;
8466;SDS011;4270;48.148;11.648;2022-11-20T00:16:39;3.47;;;2.00;;
8466;SDS011;4270;48.148;11.648;2022-11-20T00:19:05;4.00;;;2.57;;
8466;SDS011;4270;48.148;11.648;2022-11-20T00:21:30;5.33;;;2.87;;
8466;SDS011;4270;48.148;11.648;2022-11-20T00:23:55;4.60;;;2.47;;
8466;SDS011;4270;48.148;11.648;2022-11-20T00:26:21;3.63;;;2.60;;
8466;SDS011;4270;48.148;11.648;2022-11-20T00:28:53;2.90;;;2.53;;
8466;SDS011;4270;48.148;11.648;2022-11-20T00:31:19;2.83;;;2.53;;
8466;SDS011;4270;48.148;11.648;2022-11-20T00:33:44;3.90;;;2.20;;
8466;SDS011;4270;48.148;11.648;2022-11-20T00:36:11;3.40;;;2.67;;
8466;SDS011;4270;48.148;11.648;2022-11-20T00:38:36;4.87;;;2.73;;
8466;SDS011;4270;48.148;11.648;2022-11-20T00:41:03;3.03;;;2.73;;
8466;SDS011;4270;48.148;11.648;2022-11-20T00:43:28;3.80;;;2.70;;
8466;SDS011;4270;48.148;11.648;2022-11-20T00:45:57;4.23;;;2.43;;
8466;SDS011;4270;48.148;11.648;2022-11-20T00:48:22;3.50;;;2.47;;
8466;SDS011;4270;48.148;11.648;2022-11-20T00:50:48;3.93;;;2.60;;
8466;SDS011;4270;48.148;11.648;2022-11-20T00:53:13;3.60;;;2.57;;
8466;SDS011;4270;48.148;11.648;2022-11-20T00:55:39;3.67;;;2.70;;
8466;SDS011;4270;48.148;11.648;2022-11-20T00:58:04;2.97;;;2.30;;
8466;SDS011;4270;48.148;11.648;2022-11-20T01:00:29;4.10;;;3.13;;
8466;SDS011;4270;48.148;11.648;2022-11-20T01:02:55;3.30;;;2.50;;
8466;SDS011;4270;48.148;11.648;2022-11-20T01:05:20;4.00;;;2.13;;
8466;SDS011;4270;48.148;11.648;2022-11-20T01:07:45;4.10;;;3.10;;
8466;SDS011;4270;48.148;11.648;2022-11-20T01:10:10;2.83;;;2.13;;
8466;SDS011;4270;48.148;11.648;2022-11-20T01:12:36;4.00;;;2.97;;
8466;SDS011;4270;48.148;11.648;2022-11-20T01:15:01;4.23;;;2.40;;
8466;SDS011;4270;48.148;11.648;2022-11-20T01:17:26;4.60;;;2.60;;
8466;SDS011;4270;48.148;11.648;2022-11-20T01:19:51;3.33;;;3.03;;
8466;SDS011;4270;48.148;11.648;2022-11-20T01:22:16;4.37;;;2.73;;
8466;SDS011;4270;48.148;11.648;2022-11-20T01:24:42;4.40;;;2.83;;
8466;SDS011;4270;48.148;11.648;2022-11-20T01:27:07;4.37;;;2.77;;
8466;SDS011;4270;48.148;11.648;2022-11-20T01:29:32;3.90;;;3.00;;
8466;SDS011;4270;48.148;11.648;2022-11-20T01:31:57;4.73;;;3.47;;
8466;SDS011;4270;48.148;11.648;2022-11-20T01:34:22;3.40;;;2.73;;
8466;SDS011;4270;48.148;11.648;2022-11-20T01:36:48;6.37;;;3.10;;
8466;SDS011;4270;48.148;11.648;2022-11-20T01:39:15;5.80;;;2.93;;
8466;SDS011;4270;48.148;11.648;2022-11-20T01:41:41;3.23;;;2.93;;
8466;SDS011;4270;48.148;11.648;2022-11-20T01:47:36;3.97;;;2.33;;
8466;SDS011;4270;48.148;11.648;2022-11-20T01:50:22;2.93;;;2.60;;
8466;SDS011;4270;48.148;11.648;2022-11-20T01:52:55;4.00;;;2.90;;
8466;SDS011;4270;48.148;11.648;2022-11-20T01:55:22;4.83;;;2.17;;
8466;SDS011;4270;48.148;11.648;2022-11-20T01:57:48;3.53;;;2.60;;
8466;SDS011;4270;48.148;11.648;2022-11-20T02:00:14;3.30;;;2.40;;
8466;SDS011;4270;48.148;11.648;2022-11-20T02:02:48;2.90;;;2.60;;
8466;SDS011;4270;48.148;11.648;2022-11-20T02:05:18;2.97;;;2.20;;
8466;SDS011;4270;48.148;11.648;2022-11-20T02:07:47;2.87;;;2.47;;
8466;SDS011;4270;48.148;11.648;2022-11-20T02:10:13;3.73;;;2.20;;
8466;SDS011;4270;48.148;11.648;2022-11-20T02:12:38;4.23;;;2.73;;
8466;SDS011;4270;48.148;11.648;2022-11-20T02:15:21;3.80;;;2.67;;
8466;SDS011;4270;48.148;11.648;2022-11-20T02:17:47;2.97;;;2.60;;
8466;SDS011;4270;48.148;11.648;2022-11-20T02:20:12;3.27;;;2.60;;
8466;SDS011;4270;48.148;11.648;2022-11-20T02:22:39;6.07;;;2.47;;
8466;SDS011;4270;48.148;11.648;2022-11-20T02:25:09;3.83;;;2.53;;
8466;SDS011;4270;48.148;11.648;2022-11-20T02:27:35;5.77;;;2.70;;
8466;SDS011;4270;48.148;11.648;2022-11-20T02:30:01;3.50;;;3.00;;
8466;SDS011;4270;48.148;11.648;2022-11-20T02:32:28;4.03;;;2.90;;
8466;SDS011;4270;48.148;11.648;2022-11-20T02:34:53;4.90;;;2.57;;
8466;SDS011;4270;48.148;11.648;2022-11-20T02:37:19;3.33;;;2.90;;
8466;SDS011;4270;48.148;11.648;2022-11-20T02:39:45;4.97;;;2.80;;
8466;SDS011;4270;48.148;11.648;2022-11-20T02:42:10;4.60;;;2.90;;
8466;SDS011;4270;48.148;11.648;2022-11-20T02:44:36;5.30;;;3.07;;
8466;SDS011;4270;48.148;11.648;2022-11-20T02:47:01;2.83;;;2.50;;
8466;SDS011;4270;48.148;11.648;2022-11-20T02:49:26;3.30;;;2.93;;
8466;SDS011;4270;48.148;11.648;2022-11-20T02:51:51;4.97;;;3.03;;
8466;SDS011;4270;48.148;11.648;2022-11-20T02:54:17;3.10;;;2.80;;
8466;SDS011;4270;48.148;11.648;2022-11-20T02:56:42;5.70;;;3.00;;
8466;SDS011;4270;48.148;11.648;2022-11-20T02:59:08;4.03;;;2.87;;
8466;SDS011;4270;48.148;11.648;2022-11-20T03:01:33;4.30;;;2.93;;
8466;SDS011;4270;48.148;11.648;2022-11-20T03:03:59;3.63;;;2.60;;
8466;SDS011;4270;48.148;11.648;2022-11-20T03:06:24;3.67;;;2.67;;
8466;SDS011;4270;48.148;11.648;2022-11-20T03:08:49;3.73;;;2.70;;
8466;SDS011;4270;48.148;11.648;2022-11-20T03:11:14;3.93;;;3.10;;
8466;SDS011;4270;48.148;11.648;2022-11-20T03:13:39;5.83;;;3.60;;
8466;SDS011;4270;48.148;11.648;2022-11-20T03:16:15;4.73;;;3.00;;
8466;SDS011;4270;48.148;11.648;2022-11-20T03:18:40;2.43;;;2.23;;
8466;SDS011;4270;48.148;11.648;2022-11-20T03:21:06;4.73;;;2.90;;
8466;SDS011;4270;48.148;11.648;2022-11-20T03:23:32;6.10;;;3.10;;
8466;SDS011;4270;48.148;11.648;2022-11-20T03:28:56;4.07;;;2.63;;
8466;SDS011;4270;48.148;11.648;2022-11-20T03:31:23;4.50;;;3.17;;
8466;SDS011;4270;48.148;11.648;2022-11-20T03:33:48;3.80;;;2.87;;
8466;SDS011;4270;48.148;11.648;2022-11-20T03:36:14;3.07;;;2.63;;
8466;SDS011;4270;48.148;11.648;2022-11-20T03:38:40;3.23;;;2.80;;
8466;SDS011;4270;48.148;11.648;2022-11-20T03:41:09;3.60;;;2.77;;
8466;SDS011;4270;48.148;11.648;2022-11-20T03:43:35;4.87;;;3.13;;
8466;SDS011;4270;48.148;11.648;2022-11-20T03:46:00;4.17;;;3.10;;
8466;SDS011;4270;48.148;11.648;2022-11-20T03:48:25;3.50;;;2.77;;
8466;SDS011;4270;48.148;11.648;2022-11-20T03:50:51;3.97;;;2.80;;
8466;SDS011;4270;48.148;11.648;2022-11-20T03:53:17;2.93;;;2.17;;
8466;SDS011;4270;48.148;11.648;2022-11-20T03:55:42;3.60;;;3.30;;
8466;SDS011;4270;48.148;11.648;2022-11-20T03:58:08;4.57;;;2.83;;
8466;SDS011;4270;48.148;11.648;2022-11-20T04:00:33;8.73;;;3.10;;
8466;SDS011;4270;48.148;11.648;2022-11-20T04:02:58;4.90;;;2.80;;
8466;SDS011;4270;48.148;11.648;2022-11-20T04:05:24;4.07;;;2.63;;
8466;SDS011;4270;48.148;11.648;2022-11-20T04:07:49;3.40;;;2.80;;
8466;SDS011;4270;48.148;11.648;2022-11-20T04:10:14;2.83;;;2.53;;
8466;SDS011;4270;48.148;11.648;2022-11-20T04:12:40;5.47;;;3.17;;
8466;SDS011;4270;48.148;11.648;2022-11-20T04:15:05;3.90;;;2.90;;
8466;SDS011;4270;48.148;11.648;2022-11-20T04:17:30;3.37;;;2.50;;
8466;SDS011;4270;48.148;11.648;2022-11-20T04:19:56;2.80;;;2.57;;
8466;SDS011;4270;48.148;11.648;2022-11-20T04:22:21;4.57;;;3.20;;
8466;SDS011;4270;48.148;11.648;2022-11-20T04:24:46;2.63;;;2.40;;
8466;SDS011;4270;48.148;11.648;2022-11-20T04:27:11;2.83;;;2.47;;
8466;SDS011;4270;48.148;11.648;2022-11-20T04:29:37;3.13;;;2.60;;
8466;SDS011;4270;48.148;11.648;2022-11-20T04:32:02;3.83;;;2.80;;
8466;SDS011;4270;48.148;11.648;2022-11-20T04:34:27;5.03;;;2.90;;
8466;SDS011;4270;48.148;11.648;2022-11-20T04:36:52;3.50;;;3.20;;
8466;SDS011;4270;48.148;11.648;2022-11-20T04:39:18;4.30;;;2.90;;
8466;SDS011;4270;48.148;11.648;2022-11-20T04:41:43;3.50;;;2.83;;
8466;SDS011;4270;48.148;11.648;2022-11-20T04:44:08;9.50;;;2.83;;
8466;SDS011;4270;48.148;11.648;2022-11-20T04:46:38;5.60;;;2.97;;
8466;SDS011;4270;48.148;11.648;2022-11-20T04:49:03;2.60;;;2.40;;
8466;SDS011;4270;48.148;11.648;2022-11-20T04:51:28;4.90;;;2.93;;
8466;SDS011;4270;48.148;11.648;2022-11-20T04:53:54;3.33;;;3.00;;
8466;SDS011;4270;48.148;11.648;2022-11-20T04:56:19;4.73;;;3.00;;
8466;SDS011;4270;48.148;11.648;2022-11-20T04:58:44;3.63;;;2.87;;
8466;SDS011;4270;48.148;11.648;2022-11-20T05:01:11;3.17;;;2.57;;
8466;SDS011;4270;48.148;11.648;2022-11-20T05:03:37;4.50;;;3.50;;
8466;SDS011;4270;48.148;11.648;2022-11-20T05:06:02;3.77;;;2.77;;
8466;SDS011;4270;48.148;11.648;2022-11-20T05:08:28;3.60;;;3.10;;
8466;SDS011;4270;48.148;11.648;2022-11-20T05:10:54;3.80;;;2.43;;
8466;SDS011;4270;48.148;11.648;2022-11-20T05:13:19;4.40;;;3.27;;
8466;SDS011;4270;48.148;11.648;2022-11-20T05:15:44;3.10;;;2.47;;
8466;SDS011;4270;48.148;11.648;2022-11-20T05:18:09;3.43;;;2.80;;
8466;SDS011;4270;48.148;11.648;2022-11-20T05:20:34;4.33;;;2.83;;
8466;SDS011;4270;48.148;11.648;2022-11-20T05:23:01;4.93;;;3.10;;
8466;SDS011;4270;48.148;11.648;2022-11-20T05:25:26;3.43;;;2.97;;
8466;SDS011;4270;48.148;11.648;2022-11-20T05:27:52;3.47;;;3.17;;
8466;SDS011;4270;48.148;11.648;2022-11-20T05:30:17;4.57;;;3.43;;
8466;SDS011;4270;48.148;11.648;2022-11-20T05:32:43;3.47;;;3.13;;
8466;SDS011;4270;48.148;11.648;2022-11-20T05:35:08;3.67;;;2.70;;
8466;SDS011;4270;48.148;11.648;2022-11-20T05:37:33;4.67;;;2.53;;
8466;SDS011;4270;48.148;11.648;2022-11-20T05:39:59;5.93;;;2.73;;
8466;SDS011;4270;48.148;11.648;2022-11-20T05:42:24;4.00;;;3.23;;
8466;SDS011;4270;48.148;11.648;2022-11-20T05:44:59;3.60;;;2.93;;
8466;SDS011;4270;48.148;11.648;2022-11-20T05:47:24;3.20;;;2.87;;
8466;SDS011;4270;48.148;11.648;2022-11-20T05:49:50;3.77;;;3.40;;
8466;SDS011;4270;48.148;11.648;2022-11-20T05:52:15;6.10;;;3.20;;
8466;SDS011;4270;48.148;11.648;2022-11-20T05:54:40;3.60;;;2.50;;
8466;SDS011;4270;48.148;11.648;2022-11-20T05:57:05;4.87;;;2.80;;
8466;SDS011;4270;48.148;11.648;2022-11-20T05:59:31;4.50;;;2.60;;
8466;SDS011;4270;48.148;11.648;2022-11-20T06:01:56;3.83;;;3.40;;
8466;SDS011;4270;48.148;11.648;2022-11-20T06:04:21;3.70;;;3.20;;
8466;SDS011;4270;48.148;11.648;2022-11-20T06:06:46;2.87;;;2.63;;
8466;SDS011;4270;48.148;11.648;2022-11-20T06:09:12;3.03;;;2.73;;
8466;SDS011;4270;48.148;11.648;2022-11-20T06:11:37;3.27;;;2.90;;
8466;SDS011;4270;48.148;11.648;2022-11-20T06:14:02;2.90;;;2.60;;
8466;SDS011;4270;48.148;11.648;2022-11-20T06:16:27;3.20;;;2.90;;
8466;SDS011;4270;48.148;11.648;2022-11-20T06:18:53;4.33;;;3.00;;
8466;SDS011;4270;48.148;11.648;2022-11-20T06:21:19;3.43;;;2.53;;
8466;SDS011;4270;48.148;11.648;2022-11-20T06:23:44;3.23;;;2.60;;
8466;SDS011;4270;48.148;11.648;2022-11-20T06:26:14;3.43;;;2.53;;
8466;SDS011;4270;48.148;11.648;2022-11-20T06:28:40;2.97;;;2.70;;
8466;SDS011;4270;48.148;11.648;2022-11-20T06:31:07;5.20;;;2.70;;
8466;SDS011;4270;48.148;11.648;2022-11-20T06:33:32;3.67;;;2.43;;
8466;SDS011;4270;48.148;11.648;2022-11-20T06:35:58;3.10;;;2.80;;
8466;SDS011;4270;48.148;11.648;2022-11-20T06:38:24;3.57;;;2.33;;
8466;SDS011;4270;48.148;11.648;2022-11-20T06:40:49;5.67;;;2.80;;
8466;SDS011;4270;48.148;11.648;2022-11-20T06:43:14;2.70;;;1.80;;
8466;SDS011;4270;48.148;11.648;2022-11-20T06:45:39;2.23;;;1.73;;
8466;SDS011;4270;48.148;11.648;2022-11-20T06:48:05;3.33;;;2.47;;
8466;SDS011;4270;48.148;11.648;2022-11-20T06:50:30;2.97;;;2.30;;
8466;SDS011;4270;48.148;11.648;2022-11-20T06:52:55;2.40;;;2.17;;
8466;SDS011;4270;48.148;11.648;2022-11-20T06:55:21;3.23;;;2.30;;
8466;SDS011;4270;48.148;11.648;2022-11-20T06:57:46;2.40;;;2.20;;
8466;SDS011;4270;48.148;11.648;2022-11-20T07:00:11;2.27;;;2.07;;
8466;SDS011;4270;48.148;11.648;2022-11-20T07:02:37;2.90;;;2.07;;
8466;SDS011;4270;48.148;11.648;2022-11-20T07:05:02;2.10;;;1.40;;
8466;SDS011;4270;48.148;11.648;2022-11-20T07:07:27;2.50;;;2.00;;
8466;SDS011;4270;48.148;11.648;2022-11-20T07:09:53;3.17;;;2.10;;
8466;SDS011;4270;48.148;11.648;2022-11-20T07:12:18;2.23;;;1.87;;
8466;SDS011;4270;48.148;11.648;2022-11-20T07:14:43;2.50;;;2.03;;
8466;SDS011;4270;48.148;11.648;2022-11-20T07:17:08;2.07;;;1.70;;
8466;SDS011;4270;48.148;11.648;2022-11-20T07:19:34;2.00;;;1.63;;
8466;SDS011;4270;48.148;11.648;2022-11-20T07:21:59;2.30;;;1.70;;
8466;SDS011;4270;48.148;11.648;2022-11-20T07:24:24;3.17;;;1.70;;
8466;SDS011;4270;48.148;11.648;2022-11-20T07:26:49;1.63;;;1.53;;
8466;SDS011;4270;48.148;11.648;2022-11-20T07:29:15;2.80;;;2.23;;
8466;SDS011;4270;48.148;11.648;2022-11-20T07:31:41;1.87;;;1.70;;
8466;SDS011;4270;48.148;11.648;2022-11-20T07:34:06;2.70;;;2.50;;
8466;SDS011;4270;48.148;11.648;2022-11-20T07:36:31;2.90;;;2.07;;
8466;SDS011;4270;48.148;11.648;2022-11-20T07:38:57;3.20;;;2.20;;
8466;SDS011;4270;48.148;11.648;2022-11-20T07:41:22;2.77;;;2.27;;
8466;SDS011;4270;48.148;11.648;2022-11-20T07:43:47;2.77;;;2.47;;
8466;SDS011;4270;48.148;11.648;2022-11-20T07:46:12;2.50;;;2.27;;
8466;SDS011;4270;48.148;11.648;2022-11-20T07:48:38;4.83;;;2.97;;
8466;SDS011;4270;48.148;11.648;2022-11-20T07:51:03;3.90;;;2.70;;
8466;SDS011;4270;48.148;11.648;2022-11-20T07:53:28;3.20;;;2.70;;
8466;SDS011;4270;48.148;11.648;2022-11-20T07:55:53;3.10;;;2.60;;
8466;SDS011;4270;48.148;11.648;2022-11-20T07:58:19;2.90;;;2.40;;
8466;SDS011;4270;48.148;11.648;2022-11-20T08:00:45;2.73;;;2.53;;
8466;SDS011;4270;48.148;11.648;2022-11-20T08:03:10;2.80;;;2.50;;
8466;SDS011;4270;48.148;11.648;2022-11-20T08:05:35;3.07;;;2.13;;
8466;SDS011;4270;48.148;11.648;2022-11-20T08:08:01;7.70;;;2.50;;
8466;SDS011;4270;48.148;11.648;2022-11-20T08:10:26;2.20;;;2.00;;
8466;SDS011;4270;48.148;11.648;2022-11-20T08:12:52;3.20;;;2.20;;
8466;SDS011;4270;48.148;11.648;2022-11-20T08:15:36;3.40;;;2.53;;
8466;SDS011;4270;48.148;11.648;2022-11-20T08:18:06;2.30;;;2.10;;
8466;SDS011;4270;48.148;11.648;2022-11-20T08:20:32;2.97;;;2.50;;
8466;SDS011;4270;48.148;11.648;2022-11-20T08:22:58;3.30;;;2.17;;
8466;SDS011;4270;48.148;11.648;2022-11-20T08:25:25;2.10;;;1.90;;
8466;SDS011;4270;48.148;11.648;2022-11-20T08:27:50;2.63;;;2.20;;
8466;SDS011;4270;48.148;11.648;2022-11-20T08:30:15;2.80;;;2.50;;
8466;SDS011;4270;48.148;11.648;2022-11-20T08:32:40;3.00;;;2.47;;
8466;SDS011;4270;48.148;11.648;2022-11-20T08:35:06;3.43;;;2.27;;
8466;SDS011;4270;48.148;11.648;2022-11-20T08:37:31;5.00;;;2.60;;
8466;SDS011;4270;48.148;11.648;2022-11-20T08:39:56;3.70;;;2.60;;
8466;SDS011;4270;48.148;11.648;2022-11-20T08:42:22;2.97;;;2.00;;
8466;SDS011;4270;48.148;11.648;2022-11-20T08:44:47;2.53;;;2.33;;
8466;SDS011;4270;48.148;11.648;2022-11-20T08:47:12;3.37;;;1.90;;
8466;SDS011;4270;48.148;11.648;2022-11-20T08:49:37;2.83;;;1.97;;
8466;SDS011;4270;48.148;11.648;2022-11-20T08:52:03;2.37;;;2.17;;
8466;SDS011;4270;48.148;11.648;2022-11-20T08:54:28;2.83;;;2.20;;
8466;SDS011;4270;48.148;11.648;2022-11-20T08:56:53;3.13;;;1.77;;
8466;SDS011;4270;48.148;11.648;2022-11-20T08:59:19;2.37;;;2.03;;
8466;SDS011;4270;48.148;11.648;2022-11-20T09:01:44;3.33;;;2.23;;
8466;SDS011;4270;48.148;11.648;2022-11-20T09:04:09;3.50;;;2.13;;
8466;SDS011;4270;48.148;11.648;2022-11-20T09:06:34;1.87;;;1.77;;
8466;SDS011;4270;48.148;11.648;2022-11-20T09:09:00;2.13;;;1.87;;
8466;SDS011;4270;48.148;11.648;2022-11-20T09:11:25;2.03;;;1.83;;
8466;SDS011;4270;48.148;11.648;2022-11-20T09:13:50;2.67;;;2.00;;
8466;SDS011;4270;48.148;11.648;2022-11-20T09:16:15;4.00;;;2.23;;
8466;SDS011;4270;48.148;11.648;2022-11-20T09:18:41;2.67;;;1.80;;
8466;SDS011;4270;48.148;11.648;2022-11-20T09:21:09;1.93;;;1.40;;
8466;SDS011;4270;48.148;11.648;2022-11-20T09:23:35;2.17;;;1.67;;
8466;SDS011;4270;48.148;11.648;2022-11-20T09:26:01;2.53;;;1.90;;
8466;SDS011;4270;48.148;11.648;2022-11-20T09:28:27;1.77;;;1.63;;
8466;SDS011;4270;48.148;11.648;2022-11-20T09:30:52;1.77;;;1.50;;
8466;SDS011;4270;48.148;11.648;2022-11-20T09:33:17;2.07;;;1.70;;
8466;SDS011;4270;48.148;11.648;2022-11-20T09:35:43;2.40;;;1.53;;
8466;SDS011;4270;48.148;11.648;2022-11-20T09:38:08;2.40;;;1.60;;
8466;SDS011;4270;48.148;11.648;2022-11-20T09:40:35;2.27;;;1.43;;
8466;SDS011;4270;48.148;11.648;2022-11-20T09:48:05;2.10;;;1.60;;
8466;SDS011;4270;48.148;11.648;2022-11-20T09:55:49;3.13;;;1.53;;
8466;SDS011;4270;48.148;11.648;2022-11-20T09:58:20;1.87;;;1.50;;
8466;SDS011;4270;48.148;11.648;2022-11-20T10:00:49;3.83;;;1.70;;
8466;SDS011;4270;48.148;11.648;2022-11-20T10:03:16;2.30;;;1.37;;
8466;SDS011;4270;48.148;11.648;2022-11-20T10:05:53;2.20;;;1.40;;
8466;SDS011;4270;48.148;11.648;2022-11-20T10:08:22;2.37;;;1.63;;
8466;SDS011;4270;48.148;11.648;2022-11-20T10:31:14;5.90;;;2.80;;
8466;SDS011;4270;48.148;11.648;2022-11-20T10:33:43;1.97;;;1.27;;
8466;SDS011;4270;48.148;11.648;2022-11-20T10:38:43;2.30;;;1.43;;
8466;SDS011;4270;48.148;11.648;2022-11-20T10:41:11;2.97;;;1.30;;
8466;SDS011;4270;48.148;11.648;2022-11-20T10:44:05;1.70;;;1.60;;
8466;SDS011;4270;48.148;11.648;2022-11-20T10:46:34;2.80;;;1.37;;
8466;SDS011;4270;48.148;11.648;2022-11-20T10:49:02;1.60;;;1.50;;
8466;SDS011;4270;48.148;11.648;2022-11-20T10:51:37;1.43;;;1.20;;
8466;SDS011;4270;48.148;11.648;2022-11-20T11:01:30;3.63;;;1.30;;
8466;SDS011;4270;48.148;11.648;2022-11-20T11:03:55;1.37;;;1.20;;
8466;SDS011;4270;48.148;11.648;2022-11-20T11:08:49;1.20;;;1.10;;
8466;SDS011;4270;48.148;11.648;2022-11-20T11:11:18;4.87;;;1.50;;
8466;SDS011;4270;48.148;11.648;2022-11-20T11:13:45;1.60;;;1.50;;
8466;SDS011;4270;48.148;11.648;2022-11-20T11:16:24;1.40;;;1.30;;
8466;SDS011;4270;48.148;11.648;2022-11-20T11:18:49;2.53;;;1.63;;
8466;SDS011;4270;48.148;11.648;2022-11-20T11:21:21;2.13;;;1.33;;
8466;SDS011;4270;48.148;11.648;2022-11-20T11:23:47;1.20;;;1.10;;
8466;SDS011;4270;48.148;11.648;2022-11-20T11:26:22;3.60;;;1.17;;
8466;SDS011;4270;48.148;11.648;2022-11-20T11:31:32;1.93;;;1.37;;
8466;SDS011;4270;48.148;11.648;2022-11-20T11:34:08;1.50;;;1.23;;
8466;SDS011;4270;48.148;11.648;2022-11-20T11:36:36;1.50;;;1.37;;
8466;SDS011;4270;48.148;11.648;2022-11-20T11:39:02;1.53;;;1.43;;
8466;SDS011;4270;48.148;11.648;2022-11-20T11:41:30;4.23;;;1.50;;
8466;SDS011;4270;48.148;11.648;2022-11-20T11:44:18;2.10;;;1.30;;
8466;SDS011;4270;48.148;11.648;2022-11-20T11:47:00;1.70;;;1.27;;
8466;SDS011;4270;48.148;11.648;2022-11-20T11:49:27;1.03;;;1.03;;
8466;SDS011;4270;48.148;11.648;2022-11-20T11:54:25;1.50;;;1.20;;
8466;SDS011;4270;48.148;11.648;2022-11-20T11:56:51;1.43;;;1.33;;
8466;SDS011;4270;48.148;11.648;2022-11-20T11:59:25;1.83;;;1.23;;
8466;SDS011;4270;48.148;11.648;2022-11-20T12:01:57;2.00;;;1.30;;
8466;SDS011;4270;48.148;11.648;2022-11-20T12:09:48;1.50;;;1.10;;
8466;SDS011;4270;48.148;11.648;2022-11-20T12:12:22;1.20;;;1.10;;
8466;SDS011;4270;48.148;11.648;2022-11-20T12:14:49;3.13;;;1.40;;
8466;SDS011;4270;48.148;11.648;2022-11-20T12:17:17;1.70;;;1.20;;
8466;SDS011;4270;48.148;11.648;2022-11-20T12:19:42;1.70;;;1.17;;
8466;SDS011;4270;48.148;11.648;2022-11-20T12:32:31;3.17;;;1.70;;
8466;SDS011;4270;48.148;11.648;2022-11-20T12:40:49;1.77;;;1.50;;
8466;SDS011;4270;48.148;11.648;2022-11-20T12:42:50;1.30;;;1.13;;
8466;SDS011;4270;48.148;11.648;2022-11-20T13:04:00;1.77;;;1.50;;
8466;SDS011;4270;48.148;11.648;2022-11-20T13:06:32;2.50;;;1.53;;
8466;SDS011;4270;48.148;11.648;2022-11-20T13:08:57;2.30;;;1.80;;
8466;SDS011;4270;48.148;11.648;2022-11-20T13:16:58;1.53;;;1.33;;
8466;SDS011;4270;48.148;11.648;2022-11-20T13:19:25;2.60;;;1.40;;
8466;SDS011;4270;48.148;11.648;2022-11-20T13:21:51;3.00;;;2.17;;
8466;SDS011;4270;48.148;11.648;2022-11-20T13:26:46;1.47;;;1.37;;
8466;SDS011;4270;48.148;11.648;2022-11-20T13:29:12;2.00;;;1.30;;
8466;SDS011;4270;48.148;11.648;2022-11-20T13:31:42;1.30;;;1.20;;
8466;SDS011;4270;48.148;11.648;2022-11-20T13:34:09;2.83;;;1.50;;
8466;SDS011;4270;48.148;11.648;2022-11-20T13:36:36;2.17;;;1.70;;
8466;SDS011;4270;48.148;11.648;2022-11-20T13:39:23;2.33;;;1.60;;
8466;SDS011;4270;48.148;11.648;2022-11-20T13:41:53;1.73;;;1.63;;
8466;SDS011;4270;48.148;11.648;2022-11-20T13:44:27;2.20;;;1.97;;
8466;SDS011;4270;48.148;11.648;2022-11-20T13:46:53;2.23;;;1.67;;
8466;SDS011;4270;48.148;11.648;2022-11-20T14:01:34;3.20;;;2.17;;
8466;SDS011;4270;48.148;11.648;2022-11-20T14:04:00;2.40;;;1.70;;
8466;SDS011;4270;48.148;11.648;2022-11-20T14:06:31;2.30;;;1.80;;
8466;SDS011;4270;48.148;11.648;2022-11-20T14:08:58;2.57;;;1.83;;
8466;SDS011;4270;48.148;11.648;2022-11-20T14:11:24;3.10;;;1.70;;
8466;SDS011;4270;48.148;11.648;2022-11-20T14:16:26;2.20;;;2.00;;
8466;SDS011;4270;48.148;11.648;2022-11-20T14:18:51;1.73;;;1.50;;
8466;SDS011;4270;48.148;11.648;2022-11-20T14:21:27;2.00;;;1.80;;
8466;SDS011;4270;48.148;11.648;2022-11-20T14:24:05;1.93;;;1.77;;
8466;SDS011;4270;48.148;11.648;2022-11-20T14:26:31;3.87;;;1.70;;
8466;SDS011;4270;48.148;11.648;2022-11-20T14:28:57;4.63;;;1.53;;
8466;SDS011;4270;48.148;11.648;2022-11-20T14:31:23;1.73;;;1.60;;
8466;SDS011;4270;48.148;11.648;2022-11-20T14:33:49;2.03;;;1.80;;
8466;SDS011;4270;48.148;11.648;2022-11-20T14:36:18;2.30;;;1.87;;
8466;SDS011;4270;48.148;11.648;2022-11-20T14:38:44;5.07;;;3.30;;
8466;SDS011;4270;48.148;11.648;2022-11-20T14:41:20;4.13;;;3.00;;
8466;SDS011;4270;48.148;11.648;2022-11-20T14:44:19;5.97;;;3.73;;
8466;SDS011;4270;48.148;11.648;2022-11-20T14:46:37;3.83;;;2.17;;
8466;SDS011;4270;48.148;11.648;2022-11-20T14:49:02;4.40;;;3.40;;
8466;SDS011;4270;48.148;11.648;2022-11-20T14:51:36;4.93;;;2.83;;
8466;SDS011;4270;48.148;11.648;2022-11-20T14:56:37;2.33;;;1.60;;
8466;SDS011;4270;48.148;11.648;2022-11-20T14:59:03;2.07;;;1.50;;
8466;SDS011;4270;48.148;11.648;2022-11-20T15:01:28;2.43;;;2.10;;
8466;SDS011;4270;48.148;11.648;2022-11-20T15:06:26;3.20;;;1.80;;
8466;SDS011;4270;48.148;11.648;2022-11-20T15:08:52;1.23;;;1.13;;
8466;SDS011;4270;48.148;11.648;2022-11-20T15:11:18;2.57;;;1.47;;
8466;SDS011;4270;48.148;11.648;2022-11-20T15:13:44;1.60;;;1.10;;
8466;SDS011;4270;48.148;11.648;2022-11-20T15:16:15;3.20;;;1.57;;
8466;SDS011;4270;48.148;11.648;2022-11-20T15:18:42;2.00;;;1.40;;
8466;SDS011;4270;48.148;11.648;2022-11-20T15:21:12;1.23;;;1.07;;
8466;SDS011;4270;48.148;11.648;2022-11-20T15:23:37;1.50;;;0.90;;
8466;SDS011;4270;48.148;11.648;2022-11-20T15:26:09;12.10;;;6.03;;
8466;SDS011;4270;48.148;11.648;2022-11-20T15:28:36;6.10;;;1.23;;
8466;SDS011;4270;48.148;11.648;2022-11-20T15:31:02;1.50;;;1.40;;
8466;SDS011;4270;48.148;11.648;2022-11-20T15:33:28;1.83;;;1.10;;
8466;SDS011;4270;48.148;11.648;2022-11-20T15:35:53;3.00;;;1.80;;
8466;SDS011;4270;48.148;11.648;2022-11-20T15:38:18;4.17;;;2.33;;
8466;SDS011;4270;48.148;11.648;2022-11-20T15:40:43;1.70;;;1.10;;
8466;SDS011;4270;48.148;11.648;2022-11-20T15:43:09;1.33;;;1.10;;
8466;SDS011;4270;48.148;11.648;2022-11-20T15:45:38;1.70;;;1.37;;
8466;SDS011;4270;48.148;11.648;2022-11-20T15:48:04;3.93;;;2.33;;
8466;SDS011;4270;48.148;11.648;2022-11-20T15:50:34;3.90;;;2.73;;
8466;SDS011;4270;48.148;11.648;2022-11-20T15:53:01;2.87;;;1.77;;
8466;SDS011;4270;48.148;11.648;2022-11-20T15:55:26;1.93;;;1.23;;
8466;SDS011;4270;48.148;11.648;2022-11-20T15:57:51;1.50;;;1.40;;
8466;SDS011;4270;48.148;11.648;2022-11-20T16:00:17;1.83;;;1.63;;
8466;SDS011;4270;48.148;11.648;2022-11-20T16:02:42;1.93;;;1.53;;
8466;SDS011;4270;48.148;11.648;2022-11-20T16:05:11;2.50;;;1.70;;
8466;SDS011;4270;48.148;11.648;2022-11-20T16:07:36;2.03;;;1.60;;
8466;SDS011;4270;48.148;11.648;2022-11-20T16:10:02;1.50;;;1.33;;
8466;SDS011;4270;48.148;11.648;2022-11-20T16:12:28;1.90;;;1.27;;
8466;SDS011;4270;48.148;11.648;2022-11-20T16:15:12;2.23;;;1.97;;
8466;SDS011;4270;48.148;11.648;2022-11-20T16:17:56;3.27;;;2.30;;
8466;SDS011;4270;48.148;11.648;2022-11-20T16:20:21;3.73;;;2.17;;
8466;SDS011;4270;48.148;11.648;2022-11-20T16:22:46;3.20;;;1.67;;
8466;SDS011;4270;48.148;11.648;2022-11-20T16:25:11;2.47;;;2.07;;
8466;SDS011;4270;48.148;11.648;2022-11-20T16:27:37;3.27;;;1.93;;
8466;SDS011;4270;48.148;11.648;2022-11-20T16:30:02;2.67;;;1.50;;
8466;SDS011;4270;48.148;11.648;2022-11-20T16:32:27;3.90;;;3.13;;
8466;SDS011;4270;48.148;11.648;2022-11-20T16:34:52;1.70;;;1.60;;
8466;SDS011;4270;48.148;11.648;2022-11-20T16:37:17;7.50;;;4.30;;
8466;SDS011;4270;48.148;11.648;2022-11-20T16:39:43;3.30;;;2.23;;
8466;SDS011;4270;48.148;11.648;2022-11-20T16:42:08;2.53;;;1.80;;
8466;SDS011;4270;48.148;11.648;2022-11-20T16:44:33;3.50;;;2.13;;
8466;SDS011;4270;48.148;11.648;2022-11-20T16:46:59;3.40;;;2.30;;
8466;SDS011;4270;48.148;11.648;2022-11-20T16:49:24;2.73;;;2.23;;
8466;SDS011;4270;48.148;11.648;2022-11-20T16:51:50;4.43;;;2.63;;
8466;SDS011;4270;48.148;11.648;2022-11-20T16:54:15;4.90;;;2.17;;
8466;SDS011;4270;48.148;11.648;2022-11-20T16:56:41;4.87;;;3.07;;
8466;SDS011;4270;48.148;11.648;2022-11-20T16:59:06;3.60;;;3.00;;
8466;SDS011;4270;48.148;11.648;2022-11-20T17:01:32;5.80;;;2.87;;